createdAt,value
2022-12-13T00:01:47.211Z,13.77
2022-12-13T00:04:15.522Z,15.27
2022-12-13T00:06:45.394Z,14.73
2022-12-13T00:09:15.081Z,14.03
2022-12-13T00:11:43.337Z,14.93
2022-12-13T00:14:11.648Z,14.80
2022-12-13T00:16:39.580Z,14.00
2022-12-13T00:19:07.987Z,12.67
2022-12-13T00:21:36.184Z,15.13
2022-12-13T00:24:08.281Z,22.80
2022-12-13T00:26:36.608Z,14.40
2022-12-13T00:29:07.324Z,12.87
2022-12-13T00:31:59.270Z,13.00
2022-12-13T00:34:24.657Z,13.03
2022-12-13T00:36:54.122Z,14.10
2022-12-13T00:39:23.564Z,14.33
2022-12-13T00:41:52.147Z,13.33
2022-12-13T00:44:20.416Z,13.10
2022-12-13T00:46:51.709Z,12.77
2022-12-13T00:49:20.318Z,12.70
2022-12-13T00:51:49.633Z,13.33
2022-12-13T00:54:17.708Z,12.07
2022-12-13T00:56:46.969Z,11.70
2022-12-13T00:59:16.157Z,12.83
2022-12-13T01:01:44.480Z,11.60
2022-12-13T01:04:13.241Z,12.67
2022-12-13T01:06:43.239Z,12.03
2022-12-13T01:09:17.114Z,12.33
2022-12-13T01:11:46.978Z,12.90
2022-12-13T01:14:15.346Z,12.27
2022-12-13T01:16:43.547Z,12.70
2022-12-13T01:19:11.445Z,13.37
2022-12-13T01:21:39.398Z,12.77
2022-12-13T01:24:08.369Z,12.63
2022-12-13T01:26:36.419Z,12.73
2022-12-13T01:29:05.930Z,14.17
2022-12-13T01:31:34.076Z,13.43
2022-12-13T01:34:10.680Z,13.63
2022-12-13T01:36:39.337Z,12.90
2022-12-13T01:39:07.763Z,13.03
2022-12-13T01:41:43.438Z,12.60
2022-12-13T01:44:44.476Z,12.87
2022-12-13T01:47:17.437Z,12.73
2022-12-13T01:49:45.780Z,14.03
2022-12-13T01:52:16.359Z,12.60
2022-12-13T01:54:50.025Z,13.33
2022-12-13T01:57:21.099Z,12.57
2022-12-13T01:59:51.464Z,12.97
2022-12-13T02:02:20.980Z,13.07
2022-12-13T02:04:54.886Z,17.00
2022-12-13T02:07:27.710Z,13.80
2022-12-13T02:09:58.420Z,13.03
2022-12-13T02:12:30.342Z,12.53
2022-12-13T02:15:00.391Z,13.13
2022-12-13T02:17:44.954Z,12.47
2022-12-13T02:20:49.965Z,13.77
2022-12-13T02:23:34.646Z,12.77
2022-12-13T02:26:42.514Z,12.47
2022-12-13T02:29:34.639Z,12.60
2022-12-13T02:32:11.415Z,12.77
2022-12-13T02:34:45.766Z,12.37
2022-12-13T02:37:21.767Z,13.03
2022-12-13T02:39:55.223Z,13.53
2022-12-13T02:42:27.597Z,12.43
2022-12-13T02:45:01.188Z,12.23
2022-12-13T02:47:33.203Z,11.70
2022-12-13T02:50:05.209Z,13.90
2022-12-13T02:52:34.001Z,13.80
2022-12-13T02:55:08.225Z,14.07
2022-12-13T02:57:38.463Z,12.53
2022-12-13T03:00:09.474Z,12.87
2022-12-13T03:02:46.786Z,13.37
2022-12-13T03:05:43.534Z,12.50
2022-12-13T03:08:23.660Z,12.10
2022-12-13T03:11:04.523Z,12.20
2022-12-13T03:13:38.674Z,12.80
2022-12-13T03:16:14.447Z,13.10
2022-12-13T03:18:54.219Z,13.00
2022-12-13T03:21:23.493Z,11.97
2022-12-13T03:23:51.862Z,11.70
2022-12-13T03:26:22.313Z,10.93
2022-12-13T03:28:50.205Z,12.63
2022-12-13T03:31:18.460Z,11.43
2022-12-13T03:33:47.064Z,11.80
2022-12-13T03:36:18.839Z,11.93
2022-12-13T03:38:47.480Z,11.00
2022-12-13T03:41:20.279Z,10.30
2022-12-13T03:43:48.424Z,11.40
2022-12-13T03:46:16.646Z,11.47
2022-12-13T03:48:44.551Z,12.07
2022-12-13T03:51:12.495Z,11.80
2022-12-13T03:53:41.748Z,11.43
2022-12-13T03:56:09.640Z,11.67
2022-12-13T03:58:38.506Z,11.97
2022-12-13T04:01:08.038Z,10.77
2022-12-13T04:03:36.969Z,13.40
2022-12-13T04:06:05.930Z,12.90
2022-12-13T04:08:34.150Z,12.23
2022-12-13T04:11:24.699Z,13.13
2022-12-13T04:13:52.595Z,11.27
2022-12-13T04:16:20.536Z,11.70
2022-12-13T04:18:48.594Z,12.17
2022-12-13T04:21:16.761Z,12.37
2022-12-13T04:23:44.737Z,13.73
2022-12-13T04:26:14.216Z,12.03
2022-12-13T04:28:42.253Z,12.00
2022-12-13T04:31:10.303Z,11.97
2022-12-13T04:33:38.381Z,11.57
2022-12-13T04:36:06.842Z,10.60
2022-12-13T04:38:34.764Z,12.30
2022-12-13T04:41:07.282Z,11.63
2022-12-13T04:43:36.737Z,12.50
2022-12-13T04:46:04.802Z,11.67
2022-12-13T04:48:33.450Z,11.73
2022-12-13T04:51:02.283Z,11.83
2022-12-13T04:53:30.524Z,11.03
2022-12-13T04:55:58.517Z,11.63
2022-12-13T04:58:26.492Z,11.10
2022-12-13T05:00:55.790Z,13.23
2022-12-13T05:03:24.238Z,12.30
2022-12-13T05:05:52.144Z,12.23
2022-12-13T05:08:20.105Z,13.63
2022-12-13T05:10:48.040Z,12.50
2022-12-13T05:13:16.046Z,10.50
2022-12-13T05:15:43.976Z,12.33
2022-12-13T05:18:13.313Z,12.70
2022-12-13T05:20:41.216Z,11.90
2022-12-13T05:23:10.022Z,14.50
2022-12-13T05:25:37.917Z,13.67
2022-12-13T05:28:26.860Z,14.17
2022-12-13T05:30:55.415Z,20.67
2022-12-13T05:33:39.050Z,14.90
2022-12-13T05:36:07.769Z,13.57
2022-12-13T05:38:35.972Z,13.47
2022-12-13T05:41:03.878Z,13.70
2022-12-13T05:43:42.402Z,13.03
2022-12-13T05:46:12.457Z,13.77
2022-12-13T05:48:42.035Z,12.57
2022-12-13T05:51:12.032Z,11.80
2022-12-13T05:53:40.968Z,12.53
2022-12-13T05:56:10.452Z,12.40
2022-12-13T05:58:41.156Z,12.03
2022-12-13T06:01:10.958Z,13.83
2022-12-13T06:03:39.050Z,12.10
2022-12-13T06:06:10.509Z,12.07
2022-12-13T06:08:38.719Z,12.90
2022-12-13T06:11:11.657Z,12.33
2022-12-13T06:13:43.239Z,12.30
2022-12-13T06:16:21.863Z,12.43
2022-12-13T06:18:54.454Z,12.13
2022-12-13T06:21:31.184Z,11.57
2022-12-13T06:24:11.543Z,11.37
2022-12-13T06:26:39.347Z,11.10
2022-12-13T06:29:07.333Z,12.77
2022-12-13T06:31:35.201Z,11.67
2022-12-13T06:34:14.925Z,12.30
2022-12-13T06:36:44.673Z,12.90
2022-12-13T06:39:12.583Z,15.50
2022-12-13T06:41:40.607Z,13.00
2022-12-13T06:44:08.451Z,15.87
2022-12-13T06:46:36.406Z,13.90
2022-12-13T06:49:08.767Z,13.37
2022-12-13T06:51:36.549Z,12.47
2022-12-13T06:54:05.706Z,12.07
2022-12-13T06:56:33.830Z,11.37
2022-12-13T06:59:02.399Z,12.40
2022-12-13T07:01:37.561Z,11.83
2022-12-13T07:04:29.012Z,12.37
2022-12-13T07:06:54.761Z,11.67
2022-12-13T07:09:24.030Z,12.60
2022-12-13T07:11:52.597Z,12.20
2022-12-13T07:14:20.853Z,13.10
2022-12-13T07:16:48.723Z,12.10
2022-12-13T07:19:23.419Z,12.30
2022-12-13T07:21:52.715Z,12.57
2022-12-13T07:24:20.777Z,12.07
2022-12-13T07:26:50.014Z,12.10
2022-12-13T07:29:22.689Z,13.63
2022-12-13T07:31:50.819Z,14.00
2022-12-13T07:34:18.755Z,13.97
2022-12-13T07:36:46.721Z,13.93
2022-12-13T07:39:14.554Z,14.67
2022-12-13T07:41:42.416Z,15.03
2022-12-13T07:44:11.564Z,14.63
2022-12-13T07:46:39.433Z,14.10
2022-12-13T07:49:07.474Z,15.23
2022-12-13T07:51:35.578Z,16.67
2022-12-13T07:54:06.791Z,15.60
2022-12-13T07:56:35.359Z,16.50
2022-12-13T07:59:03.513Z,16.17
2022-12-13T08:01:34.543Z,30.23
2022-12-13T08:04:02.857Z,27.97
2022-12-13T08:06:31.091Z,22.70
2022-12-13T08:08:59.197Z,22.10
2022-12-13T08:11:27.133Z,21.57
2022-12-13T08:13:55.056Z,21.03
2022-12-13T08:16:26.383Z,21.50
2022-12-13T08:19:01.161Z,25.23
2022-12-13T08:24:23.475Z,26.83
2022-12-13T08:26:51.492Z,17.23
2022-12-13T08:29:22.914Z,16.83
2022-12-13T08:32:02.130Z,16.77
2022-12-13T08:34:32.644Z,18.20
2022-12-13T08:37:02.417Z,16.07
2022-12-13T08:39:34.467Z,14.97
2022-12-13T08:42:16.415Z,17.17
2022-12-13T08:44:46.837Z,15.17
2022-12-13T08:47:22.642Z,17.40
2022-12-13T08:49:55.283Z,16.00
2022-12-13T08:52:24.073Z,16.77
2022-12-13T08:54:52.522Z,16.97
2022-12-13T08:57:20.566Z,15.03
2022-12-13T08:59:48.419Z,16.13
2022-12-13T09:02:17.451Z,16.00
2022-12-13T09:04:45.393Z,16.43
2022-12-13T09:07:14.601Z,16.77
2022-12-13T09:09:42.522Z,16.57
2022-12-13T09:12:29.651Z,17.13
2022-12-13T09:15:01.369Z,18.27
2022-12-13T09:17:36.448Z,20.37
2022-12-13T09:20:10.327Z,18.43
2022-12-13T09:23:01.326Z,15.67
2022-12-13T09:25:36.559Z,16.07
2022-12-13T09:28:07.906Z,15.00
2022-12-13T09:30:35.994Z,13.70
2022-12-13T09:33:18.005Z,13.43
2022-12-13T09:35:53.782Z,12.50
2022-12-13T09:38:23.321Z,12.93
2022-12-13T09:40:58.785Z,13.23
2022-12-13T09:43:33.109Z,10.93
2022-12-13T09:46:22.119Z,11.53
2022-12-13T09:48:53.014Z,10.43
2022-12-13T09:51:44.114Z,10.07
2022-12-13T09:54:20.467Z,10.63
2022-12-13T09:56:50.887Z,10.40
2022-12-13T09:59:22.531Z,10.43
2022-12-13T10:01:50.413Z,10.83
2022-12-13T10:04:19.361Z,10.87
2022-12-13T10:06:47.397Z,9.53
2022-12-13T10:09:15.521Z,10.50
2022-12-13T10:11:53.116Z,10.53
2022-12-13T10:14:27.674Z,11.23
2022-12-13T10:16:59.042Z,9.83
2022-12-13T10:19:34.872Z,10.27
2022-12-13T10:22:05.809Z,8.93
2022-12-13T10:24:50.525Z,10.80
2022-12-13T10:27:21.728Z,10.63
2022-12-13T10:30:10.667Z,10.87
2022-12-13T10:32:47.129Z,10.43
2022-12-13T10:35:24.393Z,11.23
2022-12-13T10:37:53.003Z,9.87
2022-12-13T10:40:32.058Z,9.97
2022-12-13T10:43:14.181Z,11.87
2022-12-13T10:45:43.185Z,10.50
2022-12-13T10:48:21.319Z,9.33
2022-12-13T10:51:00.430Z,9.37
2022-12-13T10:53:32.404Z,8.40
2022-12-13T10:56:02.129Z,10.10
2022-12-13T10:58:41.046Z,9.80
2022-12-13T11:01:14.948Z,9.77
2022-12-13T11:03:42.920Z,8.67
2022-12-13T11:06:15.000Z,10.13
2022-12-13T11:08:43.100Z,8.67
2022-12-13T11:11:13.020Z,9.63
2022-12-13T11:13:46.051Z,8.47
2022-12-13T11:16:25.003Z,8.50
2022-12-13T11:18:56.477Z,9.47
2022-12-13T11:21:27.204Z,8.70
2022-12-13T11:23:57.470Z,10.63
2022-12-13T11:26:31.967Z,8.90
2022-12-13T11:29:19.375Z,9.03
2022-12-13T11:31:55.899Z,8.47
2022-12-13T11:34:33.740Z,8.97
2022-12-13T11:37:12.212Z,8.60
2022-12-13T11:39:44.435Z,8.67
2022-12-13T11:42:23.497Z,7.93
2022-12-13T11:45:01.828Z,8.47
2022-12-13T11:47:36.751Z,8.90
2022-12-13T11:50:16.465Z,7.90
2022-12-13T11:52:53.442Z,7.83
2022-12-13T11:55:25.481Z,9.27
2022-12-13T11:57:59.703Z,8.93
2022-12-13T12:00:37.945Z,8.37
2022-12-13T12:03:18.386Z,7.63
2022-12-13T12:05:56.064Z,8.40
2022-12-13T12:08:34.946Z,7.50
2022-12-13T12:11:13.204Z,8.43
2022-12-13T12:13:51.236Z,7.17
2022-12-13T12:16:30.667Z,7.83
2022-12-13T12:19:01.345Z,8.17
2022-12-13T12:22:12.345Z,8.47
2022-12-13T12:24:33.534Z,8.17
2022-12-13T12:27:22.237Z,7.67
2022-12-13T12:30:03.867Z,7.97
2022-12-13T12:32:42.842Z,9.77
2022-12-13T12:35:26.051Z,7.60
2022-12-13T12:38:00.914Z,7.97
2022-12-13T12:41:15.816Z,9.33
2022-12-13T12:43:42.098Z,8.17
2022-12-13T12:46:26.557Z,7.47
2022-12-13T12:49:17.957Z,8.03
2022-12-13T12:51:51.947Z,7.63
2022-12-13T12:54:33.950Z,6.77
2022-12-13T12:57:10.959Z,6.83
2022-12-13T12:59:49.248Z,7.37
2022-12-13T13:02:23.029Z,7.90
2022-12-13T13:04:59.105Z,7.43
2022-12-13T13:07:32.496Z,7.03
2022-12-13T13:10:25.607Z,6.27
2022-12-13T13:13:11.647Z,6.97
2022-12-13T13:16:06.060Z,6.70
2022-12-13T13:18:51.474Z,6.43
2022-12-13T13:21:46.038Z,6.80
2022-12-13T13:24:25.688Z,6.53
2022-12-13T13:26:55.882Z,7.83
2022-12-13T13:29:33.303Z,6.10
2022-12-13T13:32:05.156Z,6.80
2022-12-13T13:34:36.300Z,8.73
2022-12-13T13:37:23.001Z,7.10
2022-12-13T13:40:00.777Z,7.20
2022-12-13T13:42:29.850Z,6.50
2022-12-13T13:45:20.044Z,6.30
2022-12-13T13:47:55.710Z,6.93
2022-12-13T13:50:50.138Z,6.60
2022-12-13T13:53:51.513Z,6.97
2022-12-13T13:56:36.225Z,6.23
2022-12-13T13:59:58.913Z,5.77
2022-12-13T14:02:58.581Z,5.27
2022-12-13T14:06:12.695Z,5.50
2022-12-13T14:09:00.199Z,6.30
2022-12-13T14:12:04.712Z,5.07
2022-12-13T14:15:01.425Z,6.37
2022-12-13T14:18:02.722Z,6.70
2022-12-13T14:20:46.711Z,5.60
2022-12-13T14:23:30.232Z,5.70
2022-12-13T14:26:11.779Z,5.13
2022-12-13T14:28:48.652Z,6.47
2022-12-13T14:31:22.491Z,5.67
2022-12-13T14:33:52.985Z,7.00
2022-12-13T14:36:29.031Z,5.87
2022-12-13T14:39:05.111Z,6.27
2022-12-13T14:41:33.993Z,5.90
2022-12-13T14:44:17.369Z,5.93
2022-12-13T14:46:58.243Z,5.53
2022-12-13T14:49:28.569Z,7.63
2022-12-13T14:52:01.701Z,6.63
2022-12-13T14:54:37.062Z,6.57
2022-12-13T14:57:05.940Z,6.10
2022-12-13T14:59:34.392Z,5.80
2022-12-13T15:02:06.392Z,5.80
2022-12-13T15:04:36.085Z,6.00
2022-12-13T15:07:07.909Z,5.77
2022-12-13T15:09:38.799Z,6.50
2022-12-13T15:12:24.914Z,6.33
2022-12-13T15:14:59.668Z,5.27
2022-12-13T15:17:34.940Z,6.23
2022-12-13T15:20:24.910Z,6.57
2022-12-13T15:23:15.708Z,6.17
2022-12-13T15:26:00.234Z,7.60
2022-12-13T15:28:30.347Z,7.47
2022-12-13T15:31:00.453Z,7.17
2022-12-13T15:33:35.460Z,8.73
2022-12-13T15:36:10.800Z,8.60
2022-12-13T15:38:41.618Z,8.40
2022-12-13T15:41:18.147Z,9.17
2022-12-13T15:43:49.705Z,8.80
2022-12-13T15:46:25.873Z,9.33
2022-12-13T15:48:57.346Z,9.23
2022-12-13T15:51:29.609Z,9.63
2022-12-13T15:54:04.864Z,9.17
2022-12-13T15:56:34.521Z,8.97
2022-12-13T15:59:04.437Z,8.80
2022-12-13T16:01:35.399Z,8.97
2022-12-13T16:04:06.219Z,8.90
2022-12-13T16:06:34.967Z,9.47
2022-12-13T16:09:05.309Z,8.93
2022-12-13T16:11:36.481Z,9.50
2022-12-13T16:14:38.089Z,9.00
2022-12-13T16:17:14.448Z,9.00
2022-12-13T16:19:44.669Z,8.70
2022-12-13T16:22:12.623Z,8.63
2022-12-13T16:24:40.527Z,8.87
2022-12-13T16:27:10.720Z,8.27
2022-12-13T16:29:38.606Z,8.47
2022-12-13T16:32:08.133Z,7.67
2022-12-13T16:34:37.052Z,7.27
2022-12-13T16:37:09.025Z,8.17
2022-12-13T16:39:54.507Z,8.10
2022-12-13T16:42:25.834Z,8.17
2022-12-13T16:45:17.740Z,8.43
2022-12-13T16:47:48.494Z,8.80
2022-12-13T16:50:19.222Z,9.20
2022-12-13T16:52:48.951Z,9.80
2022-12-13T16:55:17.345Z,7.90
2022-12-13T16:57:56.399Z,7.20
2022-12-13T17:00:24.402Z,8.20
2022-12-13T17:02:52.436Z,8.70
2022-12-13T17:05:20.672Z,7.83
2022-12-13T17:07:49.964Z,8.17
2022-12-13T17:10:19.397Z,8.70
2022-12-13T17:12:47.532Z,9.67
2022-12-13T17:15:17.219Z,8.17
2022-12-13T17:17:46.517Z,9.20
2022-12-13T17:20:16.966Z,9.10
2022-12-13T17:22:46.056Z,8.47
2022-12-13T17:25:15.635Z,7.87
2022-12-13T17:27:43.516Z,8.27
2022-12-13T17:30:15.529Z,9.23
2022-12-13T17:32:43.324Z,8.83
2022-12-13T17:35:17.862Z,8.00
2022-12-13T17:37:46.411Z,9.43
2022-12-13T17:40:16.686Z,8.57
2022-12-13T17:42:45.444Z,8.37
2022-12-13T17:45:13.216Z,7.17
2022-12-13T17:47:41.120Z,7.67
2022-12-13T17:50:09.950Z,8.20
2022-12-13T17:52:39.072Z,7.77
2022-12-13T17:55:07.824Z,8.97
2022-12-13T17:57:37.246Z,7.00
2022-12-13T18:00:06.287Z,8.43
2022-12-13T18:02:40.907Z,8.40
2022-12-13T18:05:17.594Z,8.23
2022-12-13T18:07:50.858Z,8.00
2022-12-13T18:10:18.989Z,8.10
2022-12-13T18:12:48.155Z,8.47
2022-12-13T18:15:15.980Z,8.30
2022-12-13T18:18:10.230Z,7.90
2022-12-13T18:20:31.706Z,9.83
2022-12-13T18:22:59.617Z,9.93
2022-12-13T18:25:27.563Z,9.07
2022-12-13T18:28:01.035Z,12.93
2022-12-13T18:30:31.087Z,11.17
2022-12-13T18:32:59.026Z,12.13
2022-12-13T18:35:26.873Z,10.50
2022-12-13T18:37:54.833Z,11.43
2022-12-13T18:40:22.707Z,10.33
2022-12-13T18:42:50.588Z,10.50
2022-12-13T18:45:20.177Z,9.97
2022-12-13T18:47:48.035Z,9.63
2022-12-13T18:50:16.131Z,10.30
2022-12-13T18:52:44.356Z,10.83
2022-12-13T18:55:12.189Z,10.03
2022-12-13T18:57:40.132Z,11.17
2022-12-13T19:00:09.077Z,10.20
2022-12-13T19:02:39.207Z,10.90
2022-12-13T19:05:07.213Z,12.00
2022-12-13T19:07:35.046Z,11.57
2022-12-13T19:10:03.127Z,9.70
2022-12-13T19:12:32.104Z,9.80
2022-12-13T19:14:59.939Z,12.70
2022-12-13T19:17:27.796Z,14.87
2022-12-13T19:19:57.283Z,10.67
2022-12-13T19:22:25.131Z,12.07
2022-12-13T19:24:52.954Z,10.70
2022-12-13T19:27:20.773Z,10.60
2022-12-13T19:29:48.911Z,11.47
2022-12-13T19:32:16.819Z,10.87
2022-12-13T19:34:44.673Z,12.10
2022-12-13T19:37:14.028Z,12.30
2022-12-13T19:39:41.840Z,11.80
2022-12-13T19:42:10.233Z,11.60
2022-12-13T19:44:38.068Z,11.80
2022-12-13T19:47:06.552Z,11.70
2022-12-13T19:49:34.409Z,11.20
2022-12-13T19:52:02.577Z,12.27
2022-12-13T19:54:31.736Z,12.13
2022-12-13T19:57:26.717Z,11.57
2022-12-13T19:59:54.541Z,11.27
2022-12-13T20:02:22.380Z,12.50
2022-12-13T20:04:51.036Z,11.63
2022-12-13T20:07:19.134Z,11.33
2022-12-13T20:09:48.337Z,12.63
2022-12-13T20:12:16.274Z,12.40
2022-12-13T20:14:44.874Z,13.30
2022-12-13T20:17:12.759Z,11.33
2022-12-13T20:19:41.091Z,11.03
2022-12-13T20:22:08.902Z,11.47
2022-12-13T20:24:36.941Z,11.53
2022-12-13T20:27:06.554Z,11.00
2022-12-13T20:29:34.532Z,12.77
2022-12-13T20:32:02.508Z,15.07
2022-12-13T20:34:30.383Z,12.83
2022-12-13T20:36:58.407Z,12.17
2022-12-13T20:39:26.218Z,11.80
2022-12-13T20:41:54.014Z,10.87
2022-12-13T20:44:23.357Z,11.50
2022-12-13T20:46:51.251Z,11.57
2022-12-13T20:49:19.263Z,12.33
2022-12-13T20:51:47.148Z,18.73
2022-12-13T20:54:14.991Z,13.93
2022-12-13T20:56:42.907Z,11.50
2022-12-13T20:59:13.388Z,11.10
2022-12-13T21:01:45.006Z,10.77
2022-12-13T21:04:16.962Z,11.47
2022-12-13T21:06:44.859Z,11.93
2022-12-13T21:09:13.154Z,13.70
2022-12-13T21:11:43.237Z,11.87
2022-12-13T21:14:18.770Z,11.47
2022-12-13T21:16:51.472Z,12.50
2022-12-13T21:19:23.877Z,12.40
2022-12-13T21:21:52.711Z,14.13
2022-12-13T21:24:22.428Z,12.87
2022-12-13T21:26:51.122Z,11.93
2022-12-13T21:29:19.415Z,11.33
2022-12-13T21:31:49.821Z,14.70
2022-12-13T21:34:20.379Z,11.80
2022-12-13T21:36:49.679Z,12.00
2022-12-13T21:39:19.317Z,18.97
2022-12-13T21:41:47.609Z,12.80
2022-12-13T21:44:17.886Z,11.73
2022-12-13T21:49:35.316Z,14.13
2022-12-13T21:52:03.137Z,11.77
2022-12-13T21:54:30.980Z,11.53
2022-12-13T21:57:16.725Z,12.03
2022-12-13T21:59:44.522Z,12.47
2022-12-13T22:02:16.172Z,11.23
2022-12-13T22:04:47.369Z,10.87
2022-12-13T22:07:17.538Z,11.83
2022-12-13T22:09:46.538Z,10.83
2022-12-13T22:12:21.944Z,10.20
2022-12-13T22:14:50.196Z,11.37
2022-12-13T22:17:18.595Z,11.33
2022-12-13T22:19:48.383Z,11.47
2022-12-13T22:22:17.192Z,12.17
2022-12-13T22:24:49.896Z,10.73
2022-12-13T22:27:23.887Z,11.60
2022-12-13T22:29:52.386Z,10.13
2022-12-13T22:32:20.435Z,10.97
2022-12-13T22:34:49.835Z,10.83
2022-12-13T22:37:18.114Z,10.77
2022-12-13T22:39:45.937Z,10.93
2022-12-13T22:42:13.804Z,11.37
2022-12-13T22:44:41.568Z,10.63
2022-12-13T22:47:09.463Z,10.90
2022-12-13T22:49:38.098Z,11.17
2022-12-13T22:52:07.393Z,11.33
2022-12-13T22:54:35.803Z,10.57
2022-12-13T22:57:03.833Z,10.53
2022-12-13T22:59:32.052Z,11.57
2022-12-13T23:02:02.670Z,11.27
2022-12-13T23:04:33.710Z,11.07
2022-12-13T23:07:01.824Z,10.70
2022-12-13T23:09:31.038Z,11.83
2022-12-13T23:12:16.653Z,10.73
2022-12-13T23:14:44.465Z,10.83
2022-12-13T23:17:12.372Z,11.43
2022-12-13T23:19:50.234Z,12.70
2022-12-13T23:22:22.291Z,11.70
2022-12-13T23:24:52.092Z,11.47
2022-12-13T23:27:21.913Z,13.80
2022-12-13T23:29:49.797Z,16.60
2022-12-13T23:32:17.673Z,11.23
2022-12-13T23:34:45.596Z,12.37
2022-12-13T23:37:13.584Z,45.87
2022-12-13T23:39:41.517Z,14.50
2022-12-13T23:42:10.764Z,14.33
2022-12-13T23:44:38.993Z,13.83
2022-12-13T23:47:07.023Z,15.93
2022-12-13T23:49:35.010Z,14.00
2022-12-13T23:52:03.003Z,15.23
2022-12-13T23:54:30.792Z,10.77
2022-12-13T23:56:58.657Z,14.80
2022-12-13T23:59:28.631Z,13.23
